Ana Sayfa
METAR-TAF:

METAR-TAF

Havaalanları :

Russellville Regional Airport

Russellville, Arkansas, Amerika Birleşik Devletleri

Enlem: 35-15-32N, Boylam: 093-05-36W, yükseklik: 123 m

Güncel hava durumu gözlemi

Rapor saat 12:53 UTC de 35 dakika önce yapıldı.
Sakin rüzgar
Sıcaklık 17°C
Nem 94%
Basınç 1015 hPa
Görüş mesafesi: 4.8 km
1700 ft yükseklikte az bulutlu
Pus

METAR: KRUE 171253Z AUTO 00000KT 3SM BR FEW017 17/16 A2996 RMK AO2 SLP138 T01720156

Saat: 08:28 (13:28 UTC)


TAF: eksik

4.000'den fazla havaalanı için hava durumu gözlemleri ve tahminleri (METAR ve TAF raporları).

Kullanılabilir istasyonlar harita üzerinde sarı ve kırmızı noktalarla gösterilir.

İstasyonun adını görmek için fareyi noktanın üzerinde gezdirin.

Sonrasında hava gözlem ve tahminlerini görmek için tıklayın.

Haritayı değiştirmek için: yaklaştırmak için siyah artı işaretli yeşil düğmeye ve uzaklaştırmak için de eksi işaretli düğmeye hızla tıklayın; bitişik haritalar için yeşil okları kullanın.


METAR-TAF: